^^
MeteoGriva-Weather Station Historical Data
Daily Summary for October 14, 2020 Units:  Metric    English   Both
Daily Weekly Monthly Yearly Custom
  High: Low: Average:
Temperature: 22.8 °C 12.2 °C 16.6 °C
Dew Point: 14.4 °C 9.7 °C 12.1 °C
Humidity: 93.3% 50.2% 76%
Wind Speed: 5.4km/h 0km/h 0.5km/h
Wind Gust: 20.1km/h - -
Wind- - SSE
Pressure: 1014.2 hPa 1006.8 hPa -
Precipitation: 0.0 mm    
Historical Graphs
 
 
Tabular Data for October 14, 2020
Time Temperature Dew Point Pressure Wind Wind Speed Wind Gust Humidity Rainfall Rate (Hourly) solar
00:04 14.6 °C 11.2 °C 1007.1 hPa Calm     80% 0.0 mm 0 W/m2
00:09 14.6 °C 11 °C 1007.1 hPa Calm     78.8% 0.0 mm 0 W/m2
00:14 14.5 °C 10.9 °C 1007.1 hPa Calm     79% 0.0 mm 0 W/m2
00:19 14.6 °C 10.9 °C 1007.1 hPa Calm     78.9% 0.0 mm 0 W/m2
00:24 14.6 °C 11 °C 1007.1 hPa Calm     78.8% 0.0 mm 0 W/m2
00:29 14.6 °C 11.1 °C 1007.1 hPa Calm     79.8% 0.0 mm 0 W/m2
00:34 14.5 °C 11 °C 1007.1 hPa Calm     79.6% 0.0 mm 0 W/m2
00:39 14.5 °C 11 °C 1007.1 hPa Calm     79.4% 0.0 mm 0 W/m2
00:44 14.5 °C 10.9 °C 1007.1 hPa Calm     79.1% 0.0 mm 0 W/m2
00:49 14.5 °C 11.7 °C 1006.8 hPa Calm     83.5% 0.0 mm 0 W/m2
00:54 14.3 °C 11.1 °C 1007.1 hPa Calm     80.9% 0.0 mm 0 W/m2
00:59 14.3 °C 11 °C 1006.8 hPa Calm     80.6% 0.0 mm 0 W/m2
01:04 14.3 °C 11 °C 1007.1 hPa Calm     80.5% 0.0 mm 0 W/m2
01:09 14.3 °C 11 °C 1007.5 hPa Calm     80.7% 0.0 mm 0 W/m2
01:14 14.3 °C 11 °C 1007.1 hPa Calm     80.7% 0.0 mm 0 W/m2
01:19 14.2 °C 11.3 °C 1007.5 hPa Calm     82.4% 0.0 mm 0 W/m2
01:24 14.2 °C 11.3 °C 1007.1 hPa Calm     82.3% 0.0 mm 0 W/m2
01:29 14.2 °C 11.3 °C 1007.5 hPa Calm     82.8% 0.0 mm 0 W/m2
01:34 14.1 °C 11.3 °C 1007.5 hPa Calm     83% 0.0 mm 0 W/m2
01:39 14.1 °C 11.2 °C 1007.1 hPa Calm     82.3% 0.0 mm 0 W/m2
01:44 14.1 °C 10.9 °C 1007.1 hPa Calm     81.2% 0.0 mm 0 W/m2
01:49 14.1 °C 11 °C 1007.1 hPa SW 0.3 km/h 4 km/h 81.3% 0.0 mm 0 W/m2
01:54 14.2 °C 11.2 °C 1007.5 hPa South 0.7 km/h 7.9 km/h 82.1% 0.0 mm 0 W/m2
01:59 14.2 °C 11.2 °C 1007.5 hPa Calm   4 km/h 82% 0.0 mm 0 W/m2
02:04 14.1 °C 11.2 °C 1007.5 hPa Calm     82.3% 0.0 mm 0 W/m2
02:09 14.1 °C 11 °C 1007.5 hPa SSW 1 km/h 7.9 km/h 81.7% 0.0 mm 0 W/m2
02:14 14.4 °C 10.8 °C 1007.5 hPa South 0.3 km/h 7.9 km/h 79.4% 0.0 mm 0 W/m2
02:19 14.4 °C 11.1 °C 1007.8 hPa Calm     80.3% 0.0 mm 0 W/m2
02:24 14.4 °C 11.4 °C 1007.5 hPa Calm     82.2% 0.0 mm 0 W/m2
02:29 14.3 °C 10.9 °C 1007.5 hPa Calm     79.9% 0.0 mm 0 W/m2
02:34 14.2 °C 11 °C 1007.5 hPa Calm     80.8% 0.0 mm 0 W/m2
02:39 14.1 °C 10.9 °C 1007.5 hPa Calm     81% 0.0 mm 0 W/m2
02:44 14.1 °C 11.2 °C 1007.5 hPa Calm     82.9% 0.0 mm 0 W/m2
02:49 14.1 °C 11.2 °C 1007.5 hPa Calm     82.9% 0.0 mm 0 W/m2
02:54 13.9 °C 11.1 °C 1007.8 hPa Calm     84% 0.0 mm 0 W/m2
02:59 13.7 °C 10.9 °C 1007.8 hPa Calm     83.2% 0.0 mm 0 W/m2
03:04 13.8 °C 10.7 °C 1008.1 hPa Calm     81.4% 0.0 mm 0 W/m2
03:09 13.8 °C 10.5 °C 1007.8 hPa Calm     80.4% 0.0 mm 0 W/m2
03:14 14 °C 10.6 °C 1007.8 hPa Calm     80.3% 0.0 mm 0 W/m2
03:19 14.2 °C 10.5 °C 1007.8 hPa Calm     78.7% 0.0 mm 0 W/m2
03:24 14.1 °C 10.8 °C 1007.5 hPa Calm     80.2% 0.0 mm 0 W/m2
03:29 14.1 °C 10.8 °C 1007.5 hPa Calm     80.3% 0.0 mm 0 W/m2
03:34 14 °C 10.9 °C 1007.8 hPa Calm     81.7% 0.0 mm 0 W/m2
03:39 13.8 °C 10.5 °C 1007.8 hPa Calm   4 km/h 80.7% 0.0 mm 0 W/m2
04:54 13.6 °C 10.6 °C 1007.5 hPa Calm     82% 0.0 mm 0 W/m2
04:59 13.6 °C 10.5 °C 1007.5 hPa Calm     81.7% 0.0 mm 0 W/m2
05:04 13.6 °C 10.4 °C 1008.1 hPa Calm     81% 0.0 mm 0 W/m2
05:09 13.6 °C 10.6 °C 1008.1 hPa Calm     81.9% 0.0 mm 0 W/m2
05:14 13.7 °C 10.5 °C 1008.1 hPa Calm     81.4% 0.0 mm 0 W/m2
05:19 13.8 °C 10.7 °C 1008.1 hPa Calm     81.6% 0.0 mm 0 W/m2
05:24 13.8 °C 10.4 °C 1008.1 hPa Calm     79.8% 0.0 mm 0 W/m2
05:29 13.8 °C 10.3 °C 1008.1 hPa Calm     79.7% 0.0 mm 0 W/m2
05:34 13.8 °C 10.4 °C 1008.1 hPa Calm     80% 0.0 mm 0 W/m2
05:39 13.7 °C 10.3 °C 1007.8 hPa Calm     80% 0.0 mm 0 W/m2
05:44 13.7 °C 10.3 °C 1007.8 hPa Calm     80% 0.0 mm 0 W/m2
05:49 13.7 °C 10.3 °C 1008.1 hPa Calm     80% 0.0 mm 0 W/m2
05:54 13.6 °C 10.3 °C 1008.1 hPa Calm     80.6% 0.0 mm 0 W/m2
05:59 13.3 °C 10.5 °C 1007.8 hPa Calm     82.9% 0.0 mm 0 W/m2
06:04 13.3 °C 10.5 °C 1008.1 hPa Calm     83.1% 0.0 mm 0 W/m2
06:09 13.2 °C 10.4 °C 1007.8 hPa Calm     83% 0.0 mm 0 W/m2
06:14 13.1 °C 10.6 °C 1008.1 hPa Calm     84.8% 0.0 mm 0 W/m2
06:19 12.8 °C 10.2 °C 1008.1 hPa Calm     84.1% 0.0 mm 0 W/m2
06:24 12.8 °C 10.2 °C 1008.1 hPa Calm     83.9% 0.0 mm 0 W/m2
06:29 12.8 °C 10.4 °C 1008.1 hPa Calm     85.4% 0.0 mm 0 W/m2
06:34 12.8 °C 10.2 °C 1008.5 hPa Calm     84.4% 0.0 mm 0 W/m2
06:39 12.7 °C 10.2 °C 1008.5 hPa Calm     84.9% 0.0 mm 0 W/m2
06:44 12.7 °C 10.2 °C 1008.1 hPa Calm     84.4% 0.0 mm 0 W/m2
06:49 12.7 °C 10.2 °C 1008.1 hPa Calm     85.4% 0.0 mm 0 W/m2
06:54 12.6 °C 10.3 °C 1008.1 hPa Calm     86.3% 0.0 mm 0 W/m2
06:59 12.2 °C 9.9 °C 1008.1 hPa Calm     85.7% 0.0 mm 0 W/m2
07:04 12.2 °C 10 °C 1008.5 hPa Calm     86.6% 0.0 mm 0 W/m2
07:09 12.2 °C 9.8 °C 1008.5 hPa Calm     85.2% 0.0 mm 0 W/m2
07:14 12.3 °C 9.9 °C 1008.5 hPa Calm     85.1% 0.0 mm 0 W/m2
07:19 12.6 °C 10 °C 1008.5 hPa Calm     83.9% 0.0 mm 0 W/m2
07:24 12.5 °C 10.3 °C 1008.5 hPa Calm     86.3% 0.0 mm 0 W/m2
07:29 12.5 °C 10.2 °C 1008.5 hPa Calm     86.1% 0.0 mm 0 W/m2
07:34 12.5 °C 9.9 °C 1008.5 hPa Calm     84.1% 0.0 mm 0 W/m2
07:39 12.5 °C 10.2 °C 1008.8 hPa Calm     85.7% 0.0 mm 0 W/m2
07:44 12.5 °C 10 °C 1008.8 hPa Calm     84.4% 0.0 mm 4 W/m2
07:49 12.5 °C 9.8 °C 1008.8 hPa Calm     83.3% 0.0 mm 6 W/m2
07:54 12.5 °C 10 °C 1008.8 hPa Calm     84.7% 0.0 mm 16 W/m2
07:59 13 °C 10.1 °C 1009.1 hPa Calm     82.6% 0.0 mm 23 W/m2
08:04 13 °C 10 °C 1008.8 hPa Calm     82.1% 0.0 mm 29 W/m2
08:09 13.1 °C 9.8 °C 1009.5 hPa Calm     80.6% 0.0 mm 35 W/m2
08:14 13.2 °C 9.7 °C 1009.5 hPa Calm     79.8% 0.0 mm 42 W/m2
08:19 14.7 °C 10.8 °C 1009.5 hPa Calm     77.3% 0.0 mm 50 W/m2
08:24 14.7 °C 11 °C 1009.5 hPa Calm     78.3% 0.0 mm 53 W/m2
08:29 14.7 °C 10.8 °C 1009.5 hPa Calm     77.4% 0.0 mm 55 W/m2
08:34 14.7 °C 10.5 °C 1009.8 hPa Calm     75.8% 0.0 mm 58 W/m2
08:39 16.1 °C 11.6 °C 1009.8 hPa Calm     74.4% 0.0 mm 62 W/m2
08:44 16 °C 11.8 °C 1010.2 hPa Calm     75.8% 0.0 mm 66 W/m2
08:49 16 °C 11.4 °C 1010.2 hPa Calm     73.6% 0.0 mm 69 W/m2
08:54 16 °C 11.6 °C 1010.2 hPa Calm     74.9% 0.0 mm 72 W/m2
08:59 16.9 °C 11.8 °C 1010.2 hPa Calm     71.9% 0.0 mm 75 W/m2
09:04 17.1 °C 11.6 °C 1010.2 hPa Calm     70.3% 0.0 mm 78 W/m2
09:09 17.2 °C 11.8 °C 1010.2 hPa Calm     70.3% 0.0 mm 80 W/m2
09:14 17.4 °C 11.3 °C 1010.2 hPa Calm     67.7% 0.0 mm 82 W/m2
09:19 18.2 °C 12.5 °C 1010.5 hPa Calm     69.4% 0.0 mm 83 W/m2
09:24 18.3 °C 12.5 °C 1010.5 hPa Calm     69.2% 0.0 mm 84 W/m2
09:29 18.2 °C 12.6 °C 1010.5 hPa Calm     70% 0.0 mm 89 W/m2
09:34 18.2 °C 12.6 °C 1010.8 hPa Calm     69.9% 0.0 mm 86 W/m2
09:39 18.2 °C 12.6 °C 1010.8 hPa Calm     70% 0.0 mm 87 W/m2
09:44 18.2 °C 12.5 °C 1010.8 hPa Calm     69.7% 0.0 mm 88 W/m2
09:49 18.2 °C 12.4 °C 1010.8 hPa Calm     68.9% 0.0 mm 89 W/m2
09:54 18.2 °C 12.3 °C 1010.8 hPa Calm     68.6% 0.0 mm 90 W/m2
09:59 18.3 °C 12.3 °C 1010.8 hPa Calm     68.2% 0.0 mm 93 W/m2
10:04 18.3 °C 11.9 °C 1010.8 hPa Calm     66.1% 0.0 mm 96 W/m2
10:09 18.4 °C 12.2 °C 1010.8 hPa SE 0.3 km/h 7.9 km/h 67% 0.0 mm 99 W/m2
10:14 18.5 °C 12.7 °C 1010.8 hPa Calm   7.9 km/h 68.8% 0.0 mm 102 W/m2
10:19 18.5 °C 12.6 °C 1010.8 hPa Calm     68.8% 0.0 mm 106 W/m2
10:24 18.5 °C 12.5 °C 1011.2 hPa Calm     68% 0.0 mm 110 W/m2
10:29 18.5 °C 13 °C 1011.2 hPa Calm     70.6% 0.0 mm 115 W/m2
10:34 18.4 °C 13.3 °C 1011.2 hPa NE 0.2 km/h 4 km/h 72% 0.0 mm 119 W/m2
10:39 18.3 °C 12.5 °C 1011.2 hPa Calm     69.1% 0.0 mm 125 W/m2
10:44 18.3 °C 12.4 °C 1011.2 hPa Calm     68.2% 0.0 mm 131 W/m2
10:49 18.4 °C 12.7 °C 1011.2 hPa Calm     69.7% 0.0 mm 136 W/m2
10:54 18.5 °C 12.7 °C 1011.2 hPa NNE 0.5 km/h 4 km/h 69.1% 0.0 mm 142 W/m2
10:59 17.8 °C 12.6 °C 1011.2 hPa NE 0.7 km/h 7.9 km/h 72% 0.0 mm 148 W/m2
11:04 17.3 °C 12.4 °C 1011.2 hPa ENE 0.3 km/h 7.9 km/h 72.9% 0.0 mm 153 W/m2
11:09 17.3 °C 12.7 °C 1011.2 hPa ENE 1.1 km/h 12.2 km/h 74.4% 0.0 mm 159 W/m2
11:14 17.3 °C 13 °C 1011.2 hPa NE 1.2 km/h 7.9 km/h 76.1% 0.0 mm 165 W/m2
11:19 17.9 °C 13.2 °C 1011.2 hPa South 0.9 km/h 12.2 km/h 74.3% 0.0 mm 174 W/m2
11:24 18.3 °C 13.2 °C 1011.5 hPa SE 1.8 km/h 7.9 km/h 71.9% 0.0 mm 185 W/m2
11:29 18.3 °C 13.1 °C 1011.5 hPa NE 0.4 km/h 7.9 km/h 71.7% 0.0 mm 194 W/m2
11:34 18.4 °C 12.8 °C 1011.5 hPa Calm     69.8% 0.0 mm 207 W/m2
11:39 18.5 °C 13.1 °C 1011.5 hPa ENE 0.7 km/h 7.9 km/h 71% 0.0 mm 208 W/m2
11:44 18.3 °C 13.8 °C 1011.5 hPa ENE 1.6 km/h 7.9 km/h 74.9% 0.0 mm 213 W/m2
11:49 18.1 °C 13.5 °C 1011.5 hPa ENE 0.5 km/h 4 km/h 74.7% 0.0 mm 220 W/m2
11:54 17.9 °C 13.4 °C 1011.5 hPa Calm   4 km/h 75% 0.0 mm 228 W/m2
11:59 17.6 °C 13 °C 1011.5 hPa NNE 0.1 km/h 4 km/h 74.6% 0.0 mm 238 W/m2
12:04 17.6 °C 12.7 °C 1011.5 hPa SSE 0.3 km/h 12.2 km/h 72.8% 0.0 mm 250 W/m2
12:09 17.8 °C 12.6 °C 1011.5 hPa SSE 1.1 km/h 12.2 km/h 71.4% 0.0 mm 263 W/m2
12:14 18.1 °C 12.8 °C 1011.5 hPa SE 0.9 km/h 12.2 km/h 71.2% 0.0 mm 276 W/m2
12:19 18.5 °C 13.4 °C 1011.5 hPa SSE 0.1 km/h 12.2 km/h 72.4% 0.0 mm 290 W/m2
12:24 18.8 °C 13.5 °C 1011.5 hPa NE 1 km/h 12.2 km/h 71.4% 0.0 mm 307 W/m2
12:29 18.8 °C 14.1 °C 1011.5 hPa SE 1.2 km/h 12.2 km/h 73.9% 0.0 mm 308 W/m2
12:34 18.8 °C 14 °C 1011.5 hPa SSE 2.9 km/h 7.9 km/h 73.4% 0.0 mm 322 W/m2
12:39 18.2 °C 13.9 °C 1011.5 hPa ENE 1.5 km/h 7.9 km/h 75.9% 0.0 mm 334 W/m2
12:44 17.7 °C 13.7 °C 1011.5 hPa ESE 0.2 km/h 7.9 km/h 77.8% 0.0 mm 326 W/m2
12:49 17.8 °C 13.4 °C 1011.5 hPa Calm     75.7% 0.0 mm 346 W/m2
12:54 17.9 °C 13.4 °C 1011.2 hPa Calm     74.8% 0.0 mm 358 W/m2
12:59 18.3 °C 13.9 °C 1011.5 hPa SSE 0.3 km/h 4 km/h 75.7% 0.0 mm 203 W/m2
13:04 18.6 °C 14.3 °C 1011.2 hPa Calm   4 km/h 76% 0.0 mm 375 W/m2
13:09 18.6 °C 14.2 °C 1011.5 hPa NNE 0.8 km/h 12.2 km/h 75.8% 0.0 mm 411 W/m2
13:14 18.6 °C 14.4 °C 1011.5 hPa NE 1.1 km/h 12.2 km/h 76.7% 0.0 mm 402 W/m2
13:19 18.3 °C 14.3 °C 1011.5 hPa ENE 0.2 km/h 4 km/h 77.6% 0.0 mm 104 W/m2
13:24 17.9 °C 14.2 °C 1011.5 hPa Calm   4 km/h 79% 0.0 mm 428 W/m2
13:29 18 °C 13.7 °C 1011.2 hPa Calm     76.1% 0.0 mm 428 W/m2
13:34 18.1 °C 13.7 °C 1011.5 hPa Calm     75.3% 0.0 mm 202 W/m2
13:39 18.1 °C 14 °C 1011.2 hPa Calm     76.9% 0.0 mm 390 W/m2
13:44 17.9 °C 14.1 °C 1011.2 hPa Calm     78.4% 0.0 mm 192 W/m2
13:49 18 °C 13.9 °C 1011.2 hPa South 0.2 km/h 7.9 km/h 77.3% 0.0 mm 148 W/m2
13:54 18.1 °C 13.6 °C 1011.2 hPa Calm     75.3% 0.0 mm 484 W/m2
13:59 18.8 °C 13.5 °C 1011.2 hPa Calm   7.9 km/h 71% 0.0 mm 473 W/m2
14:04 19.6 °C 14 °C 1011.2 hPa SSE 1.6 km/h 12.2 km/h 70.3% 0.0 mm 423 W/m2
14:09 19.5 °C 14.2 °C 1011.2 hPa SSE 0.4 km/h 12.2 km/h 71.3% 0.0 mm 466 W/m2
14:14 19.5 °C 14 °C 1010.8 hPa SE 0.3 km/h 7.9 km/h 70.4% 0.0 mm 460 W/m2
14:19 19.7 °C 13.7 °C 1010.8 hPa Calm   7.9 km/h 68.4% 0.0 mm 471 W/m2
14:24 19.9 °C 13.6 °C 1010.8 hPa SE 0.2 km/h 4 km/h 67.3% 0.0 mm 477 W/m2
14:29 20 °C 13.4 °C 1010.8 hPa Calm     65.8% 0.0 mm 469 W/m2
14:34 20.1 °C 14 °C 1010.8 hPa Calm     68% 0.0 mm 453 W/m2
14:39 20.1 °C 14 °C 1010.8 hPa ENE 1.1 km/h 7.9 km/h 67.9% 0.0 mm 429 W/m2
14:44 20.1 °C 13.5 °C 1010.8 hPa NNE 2 km/h 7.9 km/h 65.8% 0.0 mm 431 W/m2
14:49 20.1 °C 12.5 °C 1010.5 hPa NE 3.4 km/h 12.2 km/h 61.7% 0.0 mm 433 W/m2
14:54 20.2 °C 12.1 °C 1010.5 hPa NNW 2 km/h 12.2 km/h 59.7% 0.0 mm 434 W/m2
14:59 20.6 °C 12.2 °C 1010.5 hPa SSE 3.6 km/h 12.2 km/h 58.4% 0.0 mm 429 W/m2
15:04 21.5 °C 12.8 °C 1010.5 hPa NNE 1.8 km/h 12.2 km/h 57.6% 0.0 mm 430 W/m2
15:09 21.4 °C 12.5 °C 1010.5 hPa SW 0.9 km/h 7.9 km/h 56.8% 0.0 mm 422 W/m2
15:14 21.5 °C 12.4 °C 1010.5 hPa South 0.6 km/h 7.9 km/h 56% 0.0 mm 421 W/m2
15:19 21.8 °C 12.4 °C 1010.5 hPa WNW 0.6 km/h 7.9 km/h 54.9% 0.0 mm 419 W/m2
15:24 22.6 °C 12.9 °C 1010.8 hPa South 1.4 km/h 7.9 km/h 54.2% 0.0 mm 416 W/m2
15:29 22.6 °C 12.9 °C 1010.5 hPa SSE 0.3 km/h 7.9 km/h 54.4% 0.0 mm 411 W/m2
15:34 22.5 °C 12.7 °C 1010.8 hPa SE 0.2 km/h 7.9 km/h 54% 0.0 mm 398 W/m2
15:39 22.6 °C 12.4 °C 1010.8 hPa Calm   4 km/h 52.6% 0.0 mm 400 W/m2
15:44 22.8 °C 12 °C 1010.5 hPa WSW 0.8 km/h 7.9 km/h 50.9% 0.0 mm 397 W/m2
15:49 22.7 °C 12.4 °C 1010.5 hPa South 4.3 km/h 20.1 km/h 52.2% 0.0 mm 397 W/m2
15:54 22.6 °C 12.2 °C 1010.8 hPa SSW 1.1 km/h 12.2 km/h 52% 0.0 mm 391 W/m2
15:59 22.6 °C 12 °C 1010.8 hPa SSE 0.3 km/h 7.9 km/h 51.3% 0.0 mm 389 W/m2
16:04 22.6 °C 11.9 °C 1010.5 hPa South 0.3 km/h 4 km/h 51.1% 0.0 mm 389 W/m2
16:09 22.6 °C 11.9 °C 1010.5 hPa SSE 0.8 km/h 7.9 km/h 51% 0.0 mm 386 W/m2
16:14 22.6 °C 11.8 °C 1010.5 hPa South 3.2 km/h 16.3 km/h 50.8% 0.0 mm 356 W/m2
16:19 22.4 °C 12.1 °C 1010.5 hPa South 5.4 km/h 16.3 km/h 51.9% 0.0 mm 370 W/m2
16:29 21.9 °C 11.4 °C 1010.8 hPa Calm   12.2 km/h 51.3% 0.0 mm 357 W/m2
16:34 22 °C 11.5 °C 1010.8 hPa South 0.6 km/h 7.9 km/h 51.3% 0.0 mm 351 W/m2
16:39 22.1 °C 11.3 °C 1010.8 hPa South 0.5 km/h 12.2 km/h 50.2% 0.0 mm 344 W/m2
16:44 22.6 °C 11.7 °C 1010.8 hPa Calm     50.3% 0.0 mm 335 W/m2
16:49 22.5 °C 12.2 °C 1010.8 hPa SSE 1.4 km/h 12.2 km/h 52% 0.0 mm 297 W/m2
16:54 22.3 °C 12.5 °C 1010.8 hPa Calm   7.9 km/h 53.9% 0.0 mm 154 W/m2
16:59 21.9 °C 12.6 °C 1010.8 hPa SSW 0.6 km/h 7.9 km/h 55.4% 0.0 mm 138 W/m2
17:04 20.5 °C 11.9 °C 1010.8 hPa SSW 0.4 km/h 7.9 km/h 57.8% 0.0 mm 64 W/m2
17:09 20.5 °C 12.4 °C 1010.8 hPa South 1.7 km/h 12.2 km/h 59.9% 0.0 mm 57 W/m2
17:14 20.3 °C 12.3 °C 1010.8 hPa SSE 1.8 km/h 12.2 km/h 60% 0.0 mm 55 W/m2
17:19 20.2 °C 12.3 °C 1010.8 hPa South 2.4 km/h 12.2 km/h 60.7% 0.0 mm 55 W/m2
17:24 19.3 °C 11.8 °C 1010.8 hPa South 1.8 km/h 12.2 km/h 61.9% 0.0 mm 53 W/m2
17:29 19.3 °C 11.8 °C 1010.8 hPa South 2.7 km/h 12.2 km/h 61.9% 0.0 mm 50 W/m2
17:34 19.3 °C 11.9 °C 1010.8 hPa Calm   12.2 km/h 62.5% 0.0 mm 47 W/m2
17:39 19.2 °C 12.1 °C 1010.8 hPa Calm   4 km/h 63.5% 0.0 mm 44 W/m2
17:44 18.9 °C 11.9 °C 1010.8 hPa Calm   7.9 km/h 64% 0.0 mm 41 W/m2
17:49 18.9 °C 11.8 °C 1010.8 hPa South 3.1 km/h 12.2 km/h 63.3% 0.0 mm 45 W/m2
17:54 18.9 °C 12.1 °C 1010.8 hPa South 0.5 km/h 12.2 km/h 64.8% 0.0 mm 45 W/m2
17:59 18.8 °C 12.5 °C 1011.2 hPa Calm   7.9 km/h 67% 0.0 mm 42 W/m2
18:04 18.3 °C 11.7 °C 1011.2 hPa South 1.8 km/h 12.2 km/h 65.5% 0.0 mm 40 W/m2
18:09 18.3 °C 11.7 °C 1011.2 hPa SSW 2.2 km/h 12.2 km/h 65.7% 0.0 mm 36 W/m2
18:14 18.2 °C 12.2 °C 1011.2 hPa SSW 2.6 km/h 7.9 km/h 67.8% 0.0 mm 33 W/m2
18:19 18.2 °C 12.8 °C 1011.5 hPa SSW 0.9 km/h 4 km/h 70.6% 0.0 mm 29 W/m2
18:24 17.8 °C 12.8 °C 1011.2 hPa South 3.3 km/h 12.2 km/h 72.2% 0.0 mm 25 W/m2
18:29 17.8 °C 13.2 °C 1011.5 hPa South 3.1 km/h 12.2 km/h 74.4% 0.0 mm 21 W/m2
18:34 17.8 °C 13.6 °C 1011.5 hPa South 4.8 km/h 12.2 km/h 76.7% 0.0 mm 17 W/m2
18:39 17.7 °C 13.7 °C 1011.5 hPa SSW 2.9 km/h 12.2 km/h 77.8% 0.0 mm 11 W/m2
18:44 17.3 °C 13.5 °C 1011.5 hPa South 4 km/h 7.9 km/h 78.9% 0.0 mm 8 W/m2
18:49 17.2 °C 13.7 °C 1011.5 hPa South 3.9 km/h 12.2 km/h 79.8% 0.0 mm 4 W/m2
18:54 17.2 °C 13.8 °C 1011.5 hPa South 4.6 km/h 12.2 km/h 80.6% 0.0 mm 0 W/m2
18:59 17.1 °C 13.8 °C 1011.5 hPa South 5.1 km/h 12.2 km/h 81% 0.0 mm 0 W/m2
19:04 16.9 °C 13.6 °C 1011.9 hPa SSW 2.9 km/h 12.2 km/h 81.3% 0.0 mm 0 W/m2
19:09 16.8 °C 13.7 °C 1011.9 hPa South 0.7 km/h 7.9 km/h 82% 0.0 mm 0 W/m2
19:14 16.7 °C 13.9 °C 1011.9 hPa Calm   7.9 km/h 83.6% 0.0 mm 0 W/m2
19:19 16.6 °C 13.9 °C 1011.9 hPa SSE 0.1 km/h 4 km/h 84.3% 0.0 mm 0 W/m2
19:24 15.9 °C 13.4 °C 1011.9 hPa Calm     85.2% 0.0 mm 0 W/m2
19:29 15.7 °C 13.4 °C 1011.9 hPa Calm     86.4% 0.0 mm 0 W/m2
20:49 15.2 °C 11.6 °C 1012.5 hPa Calm     79.2% 0.0 mm 0 W/m2
20:54 15.3 °C 11.5 °C 1012.9 hPa Calm     78.1% 0.0 mm 0 W/m2
20:59 15.3 °C 11.5 °C 1012.9 hPa Calm     78% 0.0 mm 0 W/m2
21:04 15.5 °C 11.8 °C 1012.9 hPa Calm   4 km/h 78.3% 0.0 mm 0 W/m2
21:09 15.6 °C 12 °C 1012.5 hPa Calm   4 km/h 79% 0.0 mm 0 W/m2
21:14 15.6 °C 12.2 °C 1012.9 hPa SSW 0.2 km/h 4 km/h 79.7% 0.0 mm 0 W/m2
21:19 15.6 °C 12.3 °C 1012.9 hPa SSW 0.7 km/h 7.9 km/h 80.4% 0.0 mm 0 W/m2
21:39 15.4 °C 12.5 °C 1012.9 hPa Calm     83% 0.0 mm 0 W/m2
21:44 15 °C 12.2 °C 1013.2 hPa Calm     83% 0.0 mm 0 W/m2
21:49 14.8 °C 11.9 °C 1013.2 hPa Calm     82.6% 0.0 mm 0 W/m2
21:54 15 °C 11.8 °C 1013.2 hPa Calm     81% 0.0 mm 0 W/m2
21:59 15 °C 11.9 °C 1013.5 hPa Calm     81.4% 0.0 mm 0 W/m2
22:04 15.2 °C 12.1 °C 1013.5 hPa Calm     81.4% 0.0 mm 0 W/m2
22:09 15.3 °C 12.5 °C 1013.5 hPa Calm     83.2% 0.0 mm 0 W/m2
22:14 15.3 °C 12.9 °C 1013.5 hPa Calm     85.6% 0.0 mm 0 W/m2
22:19 15.4 °C 13.1 °C 1013.5 hPa Calm     86.1% 0.0 mm 0 W/m2
22:24 15.4 °C 13.4 °C 1013.5 hPa Calm     87.8% 0.0 mm 0 W/m2
22:29 15.4 °C 13.5 °C 1013.5 hPa Calm     88.4% 0.0 mm 0 W/m2
22:34 15.4 °C 13.7 °C 1013.5 hPa Calm     89.4% 0.0 mm 0 W/m2
22:39 15.4 °C 13.7 °C 1013.5 hPa Calm     89.2% 0.0 mm 0 W/m2
22:44 15.7 °C 14 °C 1013.5 hPa Calm     89.3% 0.0 mm 0 W/m2
22:49 15.8 °C 14 °C 1013.9 hPa Calm     89% 0.0 mm 0 W/m2
22:54 15.8 °C 13.2 °C 1013.9 hPa Calm     84.8% 0.0 mm 0 W/m2
22:59 15.8 °C 13 °C 1013.9 hPa Calm     83.9% 0.0 mm 0 W/m2
23:04 15.8 °C 13.8 °C 1013.9 hPa Calm     88.1% 0.0 mm 0 W/m2
23:09 15.8 °C 14 °C 1013.5 hPa Calm     88.8% 0.0 mm 0 W/m2
23:14 15.7 °C 14 °C 1013.5 hPa Calm     89.1% 0.0 mm 0 W/m2
23:19 15.6 °C 14.1 °C 1013.9 hPa Calm     90.7% 0.0 mm 0 W/m2
23:24 15.5 °C 14 °C 1013.9 hPa Calm     90.2% 0.0 mm 0 W/m2
23:29 15.4 °C 13.9 °C 1013.9 hPa Calm     90.7% 0.0 mm 0 W/m2
23:34 15.4 °C 14.1 °C 1013.9 hPa Calm     92% 0.0 mm 0 W/m2
23:39 15.3 °C 14.3 °C 1013.9 hPa Calm     93.3% 0.0 mm 0 W/m2
23:44 15 °C 13.8 °C 1014.2 hPa Calm     92.8% 0.0 mm 0 W/m2
23:49 14.7 °C 13.2 °C 1013.9 hPa Calm     91% 0.0 mm 0 W/m2
23:54 14.7 °C 13.3 °C 1013.9 hPa Calm     91.3% 0.0 mm 0 W/m2
23:59 14.7 °C 13.6 °C 1014.2 hPa Calm     93% 0.0 mm 0 W/m2
Juneau County Weather
Compliments of Weather Underground - 2 mb